createdAt,value
2018-08-22T00:00:05.833Z,92.8
2018-08-22T00:05:05.150Z,92.9
2018-08-22T00:10:07.923Z,93.3
2018-08-22T00:15:03.191Z,93.3
2018-08-22T00:20:07.587Z,93.8
2018-08-22T00:25:02.957Z,93.8
2018-08-22T00:30:10.810Z,93.9
2018-08-22T00:35:03.496Z,93.9
2018-08-22T00:40:03.227Z,94.1
2018-08-22T00:45:03.504Z,94.5
2018-08-22T00:50:05.329Z,94.8
2018-08-22T00:55:03.067Z,94.8
2018-08-22T01:00:08.426Z,95.1
2018-08-22T01:05:05.364Z,95.3
2018-08-22T01:10:03.144Z,95.4
2018-08-22T01:15:02.523Z,95.4
2018-08-22T01:20:05.467Z,95.6
2018-08-22T01:25:03.246Z,95.6
2018-08-22T01:30:06.065Z,95.3
2018-08-22T01:35:05.343Z,95
2018-08-22T01:40:05.649Z,95.2
2018-08-22T01:45:08.523Z,95.4
2018-08-22T01:50:02.840Z,95.4
2018-08-22T01:55:03.203Z,95.4
2018-08-22T02:00:05.975Z,95.3
2018-08-22T02:05:05.247Z,95.3
2018-08-22T02:10:03.052Z,95.3
2018-08-22T02:15:03.296Z,95.4
2018-08-22T02:20:05.225Z,95.3
2018-08-22T02:25:05.751Z,95.4
2018-08-22T02:30:03.126Z,95.4
2018-08-22T02:35:03.335Z,95.3
2018-08-22T02:40:08.119Z,95.3
2018-08-22T02:45:05.891Z,95.4
2018-08-22T02:50:03.203Z,95.4
2018-08-22T02:55:06.035Z,95.5
2018-08-22T03:00:08.397Z,95.5
2018-08-22T03:05:07.767Z,95.6
2018-08-22T03:10:07.644Z,95.6
2018-08-22T03:15:02.909Z,95.6
2018-08-22T03:20:08.427Z,95.7
2018-08-22T03:25:07.731Z,95.7
2018-08-22T03:30:05.640Z,95.6
2018-08-22T03:35:03.443Z,95.6
2018-08-22T03:40:03.256Z,95.6
2018-08-22T03:45:05.179Z,95.9
2018-08-22T03:50:08.652Z,95.9
2018-08-22T03:55:05.419Z,96
2018-08-22T04:00:10.310Z,95.9
2018-08-22T04:05:02.909Z,95.9
2018-08-22T04:10:05.349Z,96
2018-08-22T04:15:05.491Z,96.3
2018-08-22T04:20:02.851Z,96.3
2018-08-22T04:25:05.753Z,96.5
2018-08-22T04:30:05.628Z,96.5
2018-08-22T04:35:05.880Z,96.4
2018-08-22T04:40:02.658Z,96.4
2018-08-22T04:45:02.979Z,96.3
2018-08-22T04:50:03.552Z,96.5
2018-08-22T04:55:15.536Z,96.7
2018-08-22T05:00:02.826Z,96.8
2018-08-22T05:05:05.742Z,96.8
2018-08-22T05:10:06.063Z,97
2018-08-22T05:15:02.900Z,97
2018-08-22T05:20:03.350Z,97
2018-08-22T05:25:05.181Z,96.8
2018-08-22T05:30:06.086Z,96.8
2018-08-22T05:35:08.227Z,96.4
2018-08-22T05:40:05.517Z,96.2
2018-08-22T05:45:10.883Z,95.5
2018-08-22T05:50:08.303Z,96.2
2018-08-22T05:55:06.028Z,95.3
2018-08-22T06:00:05.897Z,95
2018-08-22T06:05:05.264Z,94.2
2018-08-22T06:10:03.164Z,94.1
2018-08-22T06:15:13.540Z,93.4
2018-08-22T06:20:02.995Z,93.4
2018-08-22T06:25:10.859Z,93.1
2018-08-22T06:30:03.173Z,93.1
2018-08-22T06:35:03.475Z,92.6
2018-08-22T06:40:05.970Z,92
2018-08-22T06:45:05.427Z,92
2018-08-22T06:50:07.886Z,91.8
2018-08-22T06:55:05.856Z,91.4
2018-08-22T07:00:03.191Z,91.3
2018-08-22T07:05:05.998Z,90.5
2018-08-22T07:10:02.837Z,90.5
2018-08-22T07:15:05.664Z,89.5
2018-08-22T07:20:05.569Z,88.8
2018-08-22T07:25:05.955Z,88.3
2018-08-22T07:30:03.396Z,88.3
2018-08-22T07:35:02.649Z,87.8
2018-08-22T07:40:03.440Z,85.6
2018-08-22T07:45:15.509Z,83.5
2018-08-22T07:50:02.821Z,83.5
2018-08-22T07:55:03.314Z,82
2018-08-22T08:00:05.476Z,79.9
2018-08-22T08:05:08.227Z,78.1
2018-08-22T08:10:03.053Z,78.1
2018-08-22T08:15:05.983Z,75.8
2018-08-22T08:20:03.500Z,75.7
2018-08-22T08:25:07.875Z,73
2018-08-22T08:30:06.035Z,70.9
2018-08-22T08:35:15.408Z,70.8
2018-08-22T08:40:08.286Z,68.5
2018-08-22T08:45:02.600Z,68.6
2018-08-22T08:50:05.492Z,65.8
2018-08-22T08:55:08.405Z,64.1
2018-08-22T09:00:02.807Z,64
2018-08-22T09:05:03.415Z,63.3
2018-08-22T09:10:03.334Z,62.7
2018-08-22T09:15:05.449Z,59.4
2018-08-22T09:20:07.949Z,59.7
2018-08-22T09:25:10.999Z,59.8
2018-08-22T09:30:05.874Z,59.2
2018-08-22T09:35:02.699Z,59.2
2018-08-22T09:40:02.607Z,59.3
2018-08-22T09:45:02.980Z,57.8
2018-08-22T09:50:03.464Z,58.3
2018-08-22T09:55:02.811Z,58.3
2018-08-22T10:00:03.671Z,57.5
2018-08-22T10:05:20.954Z,56.5
2018-08-22T10:10:03.302Z,56.4
2018-08-22T10:15:03.370Z,55.6
2018-08-22T10:20:02.923Z,55
2018-08-22T10:25:03.340Z,55.1
2018-08-22T10:30:05.243Z,53.5
2018-08-22T10:35:05.793Z,52.8
2018-08-22T10:40:02.724Z,52.7
2018-08-22T10:45:03.179Z,51.1
2018-08-22T10:50:18.739Z,50.7
2018-08-22T10:55:02.997Z,50.7
2018-08-22T11:00:03.446Z,51.2
2018-08-22T11:05:02.763Z,52.2
2018-08-22T11:10:02.929Z,51.3
2018-08-22T11:15:03.122Z,50.8
2018-08-22T11:20:08.595Z,47.8
2018-08-22T11:25:10.628Z,48.1
2018-08-22T11:30:03.046Z,48.1
2018-08-22T11:35:11.094Z,47.4
2018-08-22T11:40:02.942Z,47.4
2018-08-22T11:45:06.061Z,46.5
2018-08-22T11:50:11.092Z,46.8
2018-08-22T11:55:05.381Z,48.2
2018-08-22T12:00:10.340Z,46.3
2018-08-22T12:05:03.104Z,46.3
2018-08-22T12:10:07.990Z,44.4
2018-08-22T12:15:05.888Z,43.3
2018-08-22T12:20:05.926Z,44.3
2018-08-22T12:25:05.284Z,44.1
2018-08-22T12:30:05.168Z,42.7
2018-08-22T12:35:03.124Z,42.7
2018-08-22T12:40:02.992Z,42.3
2018-08-22T12:45:18.609Z,43.1
2018-08-22T12:50:03.008Z,43.1
2018-08-22T12:55:02.575Z,42.4
2018-08-22T13:00:05.524Z,41.9
2018-08-22T13:05:10.968Z,42.4
2018-08-22T13:10:02.857Z,42.3
2018-08-22T13:15:08.361Z,41.4
2018-08-22T13:20:07.834Z,40.4
2018-08-22T13:25:03.291Z,40.3
2018-08-22T13:30:02.797Z,40
2018-08-22T13:35:13.408Z,38.9
2018-08-22T13:40:02.859Z,38.9
2018-08-22T13:45:07.609Z,40
2018-08-22T13:50:03.042Z,40
2018-08-22T13:55:06.029Z,38.7
2018-08-22T14:00:06.042Z,37.3
2018-08-22T14:05:03.037Z,37.3
2018-08-22T14:10:10.598Z,37.2
2018-08-22T14:15:03.436Z,37.1
2018-08-22T14:20:02.963Z,38.2
2018-08-22T14:25:03.507Z,36.7
2018-08-22T14:30:08.181Z,36.2
2018-08-22T14:35:05.252Z,36.3
2018-08-22T14:40:05.675Z,37.3
2018-08-22T14:45:02.882Z,37.3
2018-08-22T14:50:03.390Z,36.8
2018-08-22T14:55:10.495Z,36.9
2018-08-22T15:00:03.332Z,36.9
2018-08-22T15:05:03.174Z,35.7
2018-08-22T15:10:05.590Z,34.7
2018-08-22T15:15:02.655Z,34.7
2018-08-22T15:20:05.779Z,31.9
2018-08-22T15:25:05.254Z,29.8
2018-08-22T15:30:03.014Z,29.8
2018-08-22T15:35:10.758Z,29.1
2018-08-22T15:40:02.683Z,29.1
2018-08-22T15:45:05.852Z,31
2018-08-22T15:50:08.334Z,32.7
2018-08-22T15:55:02.766Z,32.7
2018-08-22T16:00:03.231Z,32.5
2018-08-22T16:05:02.716Z,33.5
2018-08-22T16:10:35.652Z,34.8
2018-08-22T16:15:05.663Z,34.3
2018-08-22T16:20:05.718Z,35.6
2018-08-22T16:25:03.026Z,35.7
2018-08-22T16:30:02.779Z,36.6
2018-08-22T16:35:03.144Z,37
2018-08-22T16:40:03.037Z,37.3
2018-08-22T16:45:07.616Z,37
2018-08-22T16:50:02.985Z,36.9
2018-08-22T16:55:03.485Z,36.2
2018-08-22T17:00:07.927Z,39.5
2018-08-22T17:05:05.931Z,39.6
2018-08-22T17:10:02.817Z,39.7
2018-08-22T17:15:08.381Z,40.2
2018-08-22T17:20:10.435Z,40.8
2018-08-22T17:25:08.388Z,41
2018-08-22T17:30:05.317Z,41.6
2018-08-22T17:35:03.232Z,41.6
2018-08-22T17:40:08.235Z,43.6
2018-08-22T17:45:20.408Z,43.7
2018-08-22T17:50:05.314Z,45.2
2018-08-22T17:55:08.274Z,46.2
2018-08-22T18:00:05.252Z,47.1
2018-08-22T18:05:10.841Z,48.3
2018-08-22T18:10:05.316Z,49.2
2018-08-22T18:15:10.838Z,48.8
2018-08-22T18:20:03.342Z,48.8
2018-08-22T18:25:02.789Z,50.6
2018-08-22T18:30:05.919Z,53.8
2018-08-22T18:35:07.835Z,52.8
2018-08-22T18:40:02.894Z,52.9
2018-08-22T18:45:16.046Z,52.3
2018-08-22T18:50:05.995Z,53.7
2018-08-22T18:55:07.906Z,54.1
2018-08-22T19:00:05.849Z,54.5
2018-08-22T19:05:02.816Z,54.4
2018-08-22T19:10:02.845Z,54.8
2018-08-22T19:15:05.632Z,56.6
2018-08-22T19:20:10.677Z,57.4
2018-08-22T19:25:11.092Z,58.3
2018-08-22T19:30:03.432Z,58.3
2018-08-22T19:35:07.924Z,59.7
2018-08-22T19:40:07.800Z,60.9
2018-08-22T19:45:03.163Z,60.9
2018-08-22T19:50:03.537Z,62.3
2018-08-22T19:55:02.944Z,63.8
2018-08-22T20:00:06.036Z,66.7
2018-08-22T20:05:05.745Z,67.8
2018-08-22T20:10:11.173Z,68.2
2018-08-22T20:15:05.434Z,68.8
2018-08-22T20:20:03.020Z,68.8
2018-08-22T20:25:02.929Z,70.3
2018-08-22T20:30:05.824Z,71
2018-08-22T20:35:07.836Z,71.5
2018-08-22T20:40:02.656Z,71.5
2018-08-22T20:45:08.090Z,72.3
2018-08-22T20:50:03.537Z,72.2
2018-08-22T20:55:08.289Z,72.8
2018-08-22T21:00:25.383Z,73
2018-08-22T21:05:05.388Z,73.2
2018-08-22T21:10:08.421Z,73.2
2018-08-22T21:15:02.709Z,73.3
2018-08-22T21:20:20.861Z,75.3
2018-08-22T21:25:02.882Z,75.3
2018-08-22T21:30:08.368Z,77.2
2018-08-22T21:35:02.914Z,77.2
2018-08-22T21:40:03.005Z,77.9
2018-08-22T21:45:05.967Z,79.7
2018-08-22T21:50:03.313Z,79.7
2018-08-22T21:55:03.277Z,81.1
2018-08-22T22:00:12.812Z,82.8
2018-08-22T22:05:03.379Z,82.8
2018-08-22T22:10:10.834Z,82.7
2018-08-22T22:15:02.608Z,82.7
2018-08-22T22:20:05.561Z,84
2018-08-22T22:25:03.410Z,84
2018-08-22T22:30:07.939Z,86.1
2018-08-22T22:35:03.175Z,86.1
2018-08-22T22:40:05.503Z,86.9
2018-08-22T22:45:10.945Z,88.1
2018-08-22T22:50:03.322Z,88.1
2018-08-22T22:55:02.654Z,88.9
2018-08-22T23:00:08.107Z,89.5
2018-08-22T23:05:11.064Z,89.8
2018-08-22T23:10:02.920Z,89.8
2018-08-22T23:15:03.251Z,90
2018-08-22T23:20:02.803Z,90.1
2018-08-22T23:25:05.546Z,90.4
2018-08-22T23:30:02.948Z,90.4
2018-08-22T23:35:05.766Z,90.9
2018-08-22T23:40:03.486Z,90.9
2018-08-22T23:45:07.891Z,91.4
2018-08-22T23:50:08.408Z,91.5
2018-08-22T23:55:25.339Z,91.7
